sensor_id;sensor_type;location;lat;lon;timestamp;pressure;altitude;pressure_sealevel;temperature;humidity
61805;BME280;47725;47.912;7.356;2024-01-16T00:01:54;98908.80;;;1.00;50.47
61805;BME280;47725;47.912;7.356;2024-01-16T00:05:53;98909.72;;;0.93;51.04
61805;BME280;47725;47.912;7.356;2024-01-16T00:09:53;98909.30;;;0.87;51.08
61805;BME280;47725;47.912;7.356;2024-01-16T00:13:53;98907.14;;;0.83;51.03
61805;BME280;47725;47.912;7.356;2024-01-16T00:17:53;98904.18;;;0.81;50.82
61805;BME280;47725;47.912;7.356;2024-01-16T00:21:53;98901.31;;;0.77;51.07
61805;BME280;47725;47.912;7.356;2024-01-16T00:25:53;98899.02;;;0.74;51.12
61805;BME280;47725;47.912;7.356;2024-01-16T00:29:53;98898.43;;;0.69;51.36
61805;BME280;47725;47.912;7.356;2024-01-16T00:33:53;98897.63;;;0.65;51.34
61805;BME280;47725;47.912;7.356;2024-01-16T00:37:53;98898.38;;;0.62;51.04
61805;BME280;47725;47.912;7.356;2024-01-16T00:41:53;98900.54;;;0.57;51.15
61805;BME280;47725;47.912;7.356;2024-01-16T00:45:53;98903.41;;;0.51;51.38
61805;BME280;47725;47.912;7.356;2024-01-16T00:49:53;98904.74;;;0.46;51.60
61805;BME280;47725;47.912;7.356;2024-01-16T00:53:53;98905.00;;;0.43;51.39
61805;BME280;47725;47.912;7.356;2024-01-16T00:57:53;98905.49;;;0.42;51.17
61805;BME280;47725;47.912;7.356;2024-01-16T01:01:53;98905.86;;;0.42;51.00
61805;BME280;47725;47.912;7.356;2024-01-16T01:05:53;98907.35;;;0.42;51.05
61805;BME280;47725;47.912;7.356;2024-01-16T01:09:53;98907.24;;;0.43;50.75
61805;BME280;47725;47.912;7.356;2024-01-16T01:13:53;98907.78;;;0.42;50.83
61805;BME280;47725;47.912;7.356;2024-01-16T01:17:53;98909.31;;;0.39;51.03
61805;BME280;47725;47.912;7.356;2024-01-16T01:21:53;98910.30;;;0.34;51.20
61805;BME280;47725;47.912;7.356;2024-01-16T01:25:53;98910.05;;;0.30;51.15
61805;BME280;47725;47.912;7.356;2024-01-16T01:29:53;98910.69;;;0.27;51.34
61805;BME280;47725;47.912;7.356;2024-01-16T01:33:53;98910.44;;;0.22;51.61
61805;BME280;47725;47.912;7.356;2024-01-16T01:37:53;98911.42;;;0.17;52.04
61805;BME280;47725;47.912;7.356;2024-01-16T01:41:54;98909.92;;;0.14;51.99
61805;BME280;47725;47.912;7.356;2024-01-16T01:45:59;98909.37;;;0.16;51.39
61805;BME280;47725;47.912;7.356;2024-01-16T01:49:53;98909.28;;;0.18;51.29
61805;BME280;47725;47.912;7.356;2024-01-16T01:53:53;98909.03;;;0.21;51.16
61805;BME280;47725;47.912;7.356;2024-01-16T01:57:53;98910.13;;;0.22;51.19
61805;BME280;47725;47.912;7.356;2024-01-16T02:01:53;98912.09;;;0.23;51.15
61805;BME280;47725;47.912;7.356;2024-01-16T02:05:53;98914.09;;;0.24;50.96
61805;BME280;47725;47.912;7.356;2024-01-16T02:09:53;98915.61;;;0.23;51.00
61805;BME280;47725;47.912;7.356;2024-01-16T02:13:53;98917.63;;;0.16;51.74
61805;BME280;47725;47.912;7.356;2024-01-16T02:17:53;98918.91;;;0.08;52.20
61805;BME280;47725;47.912;7.356;2024-01-16T02:21:54;98918.20;;;0.02;52.16
61805;BME280;47725;47.912;7.356;2024-01-16T02:25:53;98916.05;;;0.00;51.95
61805;BME280;47725;47.912;7.356;2024-01-16T02:29:53;98913.45;;;-0.01;51.87
61805;BME280;47725;47.912;7.356;2024-01-16T02:33:53;98912.63;;;0.01;51.43
61805;BME280;47725;47.912;7.356;2024-01-16T02:37:53;98910.05;;;0.02;51.44
61805;BME280;47725;47.912;7.356;2024-01-16T02:41:53;98907.76;;;0.03;51.46
61805;BME280;47725;47.912;7.356;2024-01-16T02:45:53;98905.95;;;0.02;51.35
61805;BME280;47725;47.912;7.356;2024-01-16T02:49:53;98905.24;;;0.00;51.48
61805;BME280;47725;47.912;7.356;2024-01-16T02:53:53;98905.36;;;-0.04;51.59
61805;BME280;47725;47.912;7.356;2024-01-16T02:57:53;98905.27;;;-0.08;51.61
61805;BME280;47725;47.912;7.356;2024-01-16T03:01:53;98907.37;;;-0.14;51.70
61805;BME280;47725;47.912;7.356;2024-01-16T03:05:53;98908.26;;;-0.18;51.66
61805;BME280;47725;47.912;7.356;2024-01-16T03:09:53;98908.39;;;-0.22;51.63
61805;BME280;47725;47.912;7.356;2024-01-16T03:13:53;98908.43;;;-0.26;51.75
61805;BME280;47725;47.912;7.356;2024-01-16T03:17:53;98908.44;;;-0.29;51.65
61805;BME280;47725;47.912;7.356;2024-01-16T03:21:53;98910.08;;;-0.34;51.67
61805;BME280;47725;47.912;7.356;2024-01-16T03:25:53;98914.15;;;-0.39;51.78
61805;BME280;47725;47.912;7.356;2024-01-16T03:29:53;98915.48;;;-0.44;51.91
61805;BME280;47725;47.912;7.356;2024-01-16T03:33:53;98914.86;;;-0.48;51.72
61805;BME280;47725;47.912;7.356;2024-01-16T03:37:53;98914.14;;;-0.54;51.89
61805;BME280;47725;47.912;7.356;2024-01-16T03:41:53;98911.30;;;-0.58;51.63
61805;BME280;47725;47.912;7.356;2024-01-16T03:45:53;98907.42;;;-0.62;51.76
61805;BME280;47725;47.912;7.356;2024-01-16T03:49:53;98905.60;;;-0.66;51.59
61805;BME280;47725;47.912;7.356;2024-01-16T03:53:53;98907.01;;;-0.72;51.71
61805;BME280;47725;47.912;7.356;2024-01-16T03:57:53;98908.65;;;-0.76;51.87
61805;BME280;47725;47.912;7.356;2024-01-16T04:01:53;98908.20;;;-0.77;51.60
61805;BME280;47725;47.912;7.356;2024-01-16T04:05:53;98906.76;;;-0.77;51.43
61805;BME280;47725;47.912;7.356;2024-01-16T04:09:53;98905.13;;;-0.79;51.48
61805;BME280;47725;47.912;7.356;2024-01-16T04:13:53;98903.75;;;-0.84;51.86
61805;BME280;47725;47.912;7.356;2024-01-16T04:17:53;98903.94;;;-0.87;51.79
61805;BME280;47725;47.912;7.356;2024-01-16T04:21:53;98902.37;;;-0.89;51.73
61805;BME280;47725;47.912;7.356;2024-01-16T04:25:53;98899.00;;;-0.88;51.42
61805;BME280;47725;47.912;7.356;2024-01-16T04:29:53;98895.08;;;-0.85;51.04
61805;BME280;47725;47.912;7.356;2024-01-16T04:33:53;98890.03;;;-0.83;51.01
61805;BME280;47725;47.912;7.356;2024-01-16T04:37:53;98885.53;;;-0.86;51.21
61805;BME280;47725;47.912;7.356;2024-01-16T04:41:53;98883.78;;;-0.91;51.66
61805;BME280;47725;47.912;7.356;2024-01-16T04:45:53;98880.83;;;-0.94;51.50
61805;BME280;47725;47.912;7.356;2024-01-16T04:49:53;98876.54;;;-0.95;51.24
61805;BME280;47725;47.912;7.356;2024-01-16T04:53:53;98870.83;;;-0.96;51.19
61805;BME280;47725;47.912;7.356;2024-01-16T04:57:55;98865.42;;;-0.98;51.27
61805;BME280;47725;47.912;7.356;2024-01-16T05:01:53;98861.67;;;-0.99;51.28
61805;BME280;47725;47.912;7.356;2024-01-16T05:05:53;98858.94;;;-1.02;51.43
61805;BME280;47725;47.912;7.356;2024-01-16T05:09:53;98856.31;;;-1.11;52.08
61805;BME280;47725;47.912;7.356;2024-01-16T05:13:53;98852.94;;;-1.16;52.05
61805;BME280;47725;47.912;7.356;2024-01-16T05:17:53;98852.36;;;-1.19;51.99
61805;BME280;47725;47.912;7.356;2024-01-16T05:21:53;98850.22;;;-1.17;51.50
61805;BME280;47725;47.912;7.356;2024-01-16T05:25:53;98848.60;;;-1.13;51.24
61805;BME280;47725;47.912;7.356;2024-01-16T05:29:53;98846.15;;;-1.09;51.17
61805;BME280;47725;47.912;7.356;2024-01-16T05:33:53;98841.56;;;-1.07;51.04
61805;BME280;47725;47.912;7.356;2024-01-16T05:37:53;98836.99;;;-1.07;51.13
61805;BME280;47725;47.912;7.356;2024-01-16T05:41:53;98833.34;;;-1.09;51.17
61805;BME280;47725;47.912;7.356;2024-01-16T05:45:53;98830.24;;;-1.12;51.24
61805;BME280;47725;47.912;7.356;2024-01-16T05:49:53;98826.68;;;-1.16;51.31
61805;BME280;47725;47.912;7.356;2024-01-16T05:53:53;98824.77;;;-1.20;51.29
61805;BME280;47725;47.912;7.356;2024-01-16T05:57:53;98824.24;;;-1.26;51.45
61805;BME280;47725;47.912;7.356;2024-01-16T06:01:53;98821.55;;;-1.32;51.70
61805;BME280;47725;47.912;7.356;2024-01-16T06:05:55;nan;;;nan;nan
61805;BME280;47725;47.912;7.356;2024-01-16T06:10:00;nan;;;nan;nan
61805;BME280;47725;47.912;7.356;2024-01-16T06:14:05;nan;;;nan;nan
61805;BME280;47725;47.912;7.356;2024-01-16T06:18:04;98817.16;;;-1.38;51.34
61805;BME280;47725;47.912;7.356;2024-01-16T06:22:04;98813.53;;;-1.42;51.69
61805;BME280;47725;47.912;7.356;2024-01-16T06:26:04;98811.74;;;-1.48;51.72
61805;BME280;47725;47.912;7.356;2024-01-16T06:30:04;98810.69;;;-1.55;51.89
61805;BME280;47725;47.912;7.356;2024-01-16T06:34:04;98808.45;;;-1.60;52.03
61805;BME280;47725;47.912;7.356;2024-01-16T06:38:04;98807.12;;;-1.63;51.83
61805;BME280;47725;47.912;7.356;2024-01-16T06:42:04;98805.38;;;-1.66;51.82
61805;BME280;47725;47.912;7.356;2024-01-16T06:46:04;98803.09;;;-1.70;51.74
61805;BME280;47725;47.912;7.356;2024-01-16T06:50:04;98801.95;;;-1.78;51.80
61805;BME280;47725;47.912;7.356;2024-01-16T06:54:04;98802.25;;;-1.86;52.11
61805;BME280;47725;47.912;7.356;2024-01-16T06:58:04;98803.24;;;-1.92;52.07
61805;BME280;47725;47.912;7.356;2024-01-16T07:02:04;98804.74;;;-1.93;51.83
61805;BME280;47725;47.912;7.356;2024-01-16T07:06:04;98804.72;;;-1.92;51.68
61805;BME280;47725;47.912;7.356;2024-01-16T07:10:04;98801.39;;;-1.91;51.67
61805;BME280;47725;47.912;7.356;2024-01-16T07:14:06;98798.47;;;-1.91;51.66
61805;BME280;47725;47.912;7.356;2024-01-16T07:18:04;98796.92;;;-1.90;51.65
61805;BME280;47725;47.912;7.356;2024-01-16T07:22:04;98794.87;;;-1.88;51.49
61805;BME280;47725;47.912;7.356;2024-01-16T07:26:04;98794.71;;;-1.87;51.70
61805;BME280;47725;47.912;7.356;2024-01-16T07:30:04;98795.49;;;-1.86;51.57
61805;BME280;47725;47.912;7.356;2024-01-16T07:34:04;98796.13;;;-1.85;51.53
61805;BME280;47725;47.912;7.356;2024-01-16T07:38:04;98799.42;;;-1.86;51.54
61805;BME280;47725;47.912;7.356;2024-01-16T07:42:04;98803.40;;;-1.86;51.34
61805;BME280;47725;47.912;7.356;2024-01-16T07:46:04;98807.39;;;-1.87;51.32
61805;BME280;47725;47.912;7.356;2024-01-16T07:50:04;98809.66;;;-1.90;51.49
61805;BME280;47725;47.912;7.356;2024-01-16T07:54:07;98812.76;;;-1.93;51.46
61805;BME280;47725;47.912;7.356;2024-01-16T07:58:04;98813.26;;;-1.96;51.64
61805;BME280;47725;47.912;7.356;2024-01-16T08:02:04;98814.92;;;-1.98;51.62
61805;BME280;47725;47.912;7.356;2024-01-16T08:06:04;98815.70;;;-1.96;51.54
61805;BME280;47725;47.912;7.356;2024-01-16T08:10:04;98813.48;;;-1.92;51.26
61805;BME280;47725;47.912;7.356;2024-01-16T08:14:04;98811.22;;;-1.87;51.13
61805;BME280;47725;47.912;7.356;2024-01-16T08:18:04;98810.57;;;-1.85;51.30
61805;BME280;47725;47.912;7.356;2024-01-16T08:22:04;98809.99;;;-1.82;51.28
61805;BME280;47725;47.912;7.356;2024-01-16T08:26:04;98808.91;;;-1.77;51.23
61805;BME280;47725;47.912;7.356;2024-01-16T08:30:04;98809.07;;;-1.74;51.53
61805;BME280;47725;47.912;7.356;2024-01-16T08:34:04;98808.73;;;-1.71;51.48
61805;BME280;47725;47.912;7.356;2024-01-16T08:38:04;98807.44;;;-1.69;51.58
61805;BME280;47725;47.912;7.356;2024-01-16T08:42:04;98805.70;;;-1.65;51.60
61805;BME280;47725;47.912;7.356;2024-01-16T08:46:04;98804.05;;;-1.59;51.50
61805;BME280;47725;47.912;7.356;2024-01-16T08:50:04;98803.08;;;-1.53;51.31
61805;BME280;47725;47.912;7.356;2024-01-16T08:54:04;98802.79;;;-1.45;51.16
61805;BME280;47725;47.912;7.356;2024-01-16T08:58:04;98803.82;;;-1.37;51.39
61805;BME280;47725;47.912;7.356;2024-01-16T09:02:04;98804.74;;;-1.30;51.48
61805;BME280;47725;47.912;7.356;2024-01-16T09:06:04;98804.80;;;-1.22;51.53
61805;BME280;47725;47.912;7.356;2024-01-16T09:10:04;98803.89;;;-1.12;51.55
61805;BME280;47725;47.912;7.356;2024-01-16T09:14:04;98802.92;;;-1.03;51.57
61805;BME280;47725;47.912;7.356;2024-01-16T09:18:04;98800.25;;;-0.93;51.50
61805;BME280;47725;47.912;7.356;2024-01-16T09:22:04;98796.87;;;-0.82;51.32
61805;BME280;47725;47.912;7.356;2024-01-16T09:26:04;98794.76;;;-0.72;51.26
61805;BME280;47725;47.912;7.356;2024-01-16T09:30:04;98792.80;;;-0.60;51.03
61805;BME280;47725;47.912;7.356;2024-01-16T09:34:04;98792.03;;;-0.49;51.25
61805;BME280;47725;47.912;7.356;2024-01-16T09:38:04;98789.67;;;-0.36;51.19
61805;BME280;47725;47.912;7.356;2024-01-16T09:42:04;98787.39;;;-0.23;51.24
61805;BME280;47725;47.912;7.356;2024-01-16T09:46:04;98786.05;;;-0.10;51.22
61805;BME280;47725;47.912;7.356;2024-01-16T09:50:04;98783.59;;;0.04;51.35
61805;BME280;47725;47.912;7.356;2024-01-16T09:54:04;98779.86;;;0.19;50.94
61805;BME280;47725;47.912;7.356;2024-01-16T09:58:04;98776.06;;;0.35;51.31
61805;BME280;47725;47.912;7.356;2024-01-16T10:02:04;98773.52;;;0.49;51.22
61805;BME280;47725;47.912;7.356;2024-01-16T10:06:04;98773.69;;;0.60;51.50
61805;BME280;47725;47.912;7.356;2024-01-16T10:10:04;98772.33;;;0.71;51.45
61805;BME280;47725;47.912;7.356;2024-01-16T10:14:04;98771.76;;;0.84;51.46
61805;BME280;47725;47.912;7.356;2024-01-16T10:18:03;98770.94;;;0.98;51.37
61805;BME280;47725;47.912;7.356;2024-01-16T10:22:04;98768.58;;;1.14;51.21
61805;BME280;47725;47.912;7.356;2024-01-16T10:26:10;98765.40;;;1.28;51.04
61805;BME280;47725;47.912;7.356;2024-01-16T10:30:04;98762.16;;;1.41;51.15
61805;BME280;47725;47.912;7.356;2024-01-16T10:34:06;98758.53;;;1.55;51.10
61805;BME280;47725;47.912;7.356;2024-01-16T10:38:03;98754.69;;;1.66;51.27
61805;BME280;47725;47.912;7.356;2024-01-16T10:42:04;98751.25;;;1.74;51.47
61805;BME280;47725;47.912;7.356;2024-01-16T10:46:18;98747.47;;;1.77;51.77
61805;BME280;47725;47.912;7.356;2024-01-16T10:50:04;98744.20;;;1.83;51.67
61805;BME280;47725;47.912;7.356;2024-01-16T10:54:04;98739.08;;;1.88;51.46
61805;BME280;47725;47.912;7.356;2024-01-16T10:58:04;98734.56;;;1.92;52.17
61805;BME280;47725;47.912;7.356;2024-01-16T11:02:03;98732.06;;;1.99;51.80
61805;BME280;47725;47.912;7.356;2024-01-16T11:06:05;98728.58;;;2.05;51.53
61805;BME280;47725;47.912;7.356;2024-01-16T11:10:04;98723.67;;;2.11;51.54
61805;BME280;47725;47.912;7.356;2024-01-16T11:14:03;98721.91;;;2.21;51.17
61805;BME280;47725;47.912;7.356;2024-01-16T11:18:04;98720.78;;;2.33;50.87
61805;BME280;47725;47.912;7.356;2024-01-16T11:22:03;98717.60;;;2.45;50.65
61805;BME280;47725;47.912;7.356;2024-01-16T11:30:06;98711.75;;;2.74;50.38
61805;BME280;47725;47.912;7.356;2024-01-16T11:34:03;98706.14;;;2.89;50.31
61805;BME280;47725;47.912;7.356;2024-01-16T11:38:04;98700.22;;;3.03;50.15
61805;BME280;47725;47.912;7.356;2024-01-16T11:42:04;98693.91;;;3.13;49.05
61805;BME280;47725;47.912;7.356;2024-01-16T11:46:07;98687.94;;;3.20;50.26
61805;BME280;47725;47.912;7.356;2024-01-16T11:50:10;98683.40;;;3.24;50.05
61805;BME280;47725;47.912;7.356;2024-01-16T11:54:03;98678.75;;;3.29;49.83
61805;BME280;47725;47.912;7.356;2024-01-16T12:02:05;98667.03;;;3.43;49.68
61805;BME280;47725;47.912;7.356;2024-01-16T12:06:04;98660.44;;;3.46;49.22
61805;BME280;47725;47.912;7.356;2024-01-16T12:10:04;98656.61;;;3.52;48.71
61805;BME280;47725;47.912;7.356;2024-01-16T12:14:03;98653.99;;;3.55;47.32
61805;BME280;47725;47.912;7.356;2024-01-16T12:18:04;98650.57;;;3.56;47.74
61805;BME280;47725;47.912;7.356;2024-01-16T12:22:03;98646.72;;;3.59;47.05
61805;BME280;47725;47.912;7.356;2024-01-16T12:26:03;98643.39;;;3.64;47.76
61805;BME280;47725;47.912;7.356;2024-01-16T12:30:07;98638.75;;;3.72;47.67
61805;BME280;47725;47.912;7.356;2024-01-16T12:34:09;98634.47;;;3.81;47.40
61805;BME280;47725;47.912;7.356;2024-01-16T12:38:04;98629.66;;;3.90;47.69
61805;BME280;47725;47.912;7.356;2024-01-16T12:42:04;98625.16;;;4.00;47.53
61805;BME280;47725;47.912;7.356;2024-01-16T12:46:03;98620.95;;;4.09;47.50
61805;BME280;47725;47.912;7.356;2024-01-16T12:50:04;98616.35;;;4.15;47.20
61805;BME280;47725;47.912;7.356;2024-01-16T12:54:13;98609.70;;;4.20;47.54
61805;BME280;47725;47.912;7.356;2024-01-16T12:58:15;98602.12;;;4.27;47.58
61805;BME280;47725;47.912;7.356;2024-01-16T13:02:03;98593.73;;;4.37;47.24
61805;BME280;47725;47.912;7.356;2024-01-16T13:06:04;98586.19;;;4.46;46.46
61805;BME280;47725;47.912;7.356;2024-01-16T13:10:06;98579.85;;;4.55;46.58
61805;BME280;47725;47.912;7.356;2024-01-16T13:14:03;98572.78;;;4.62;46.70
61805;BME280;47725;47.912;7.356;2024-01-16T13:18:03;98564.29;;;4.68;46.16
61805;BME280;47725;47.912;7.356;2024-01-16T13:22:03;98555.91;;;4.74;46.30
61805;BME280;47725;47.912;7.356;2024-01-16T13:26:03;98549.75;;;4.82;46.51
61805;BME280;47725;47.912;7.356;2024-01-16T13:30:04;98544.41;;;4.90;45.29
61805;BME280;47725;47.912;7.356;2024-01-16T13:34:03;98540.41;;;4.96;46.42
61805;BME280;47725;47.912;7.356;2024-01-16T13:38:03;98536.13;;;5.03;46.47
61805;BME280;47725;47.912;7.356;2024-01-16T13:42:04;98530.22;;;5.10;46.31
61805;BME280;47725;47.912;7.356;2024-01-16T13:46:03;98523.39;;;5.20;46.73
61805;BME280;47725;47.912;7.356;2024-01-16T13:50:04;98518.72;;;5.29;45.12
61805;BME280;47725;47.912;7.356;2024-01-16T13:54:03;98515.16;;;5.29;46.18
61805;BME280;47725;47.912;7.356;2024-01-16T13:58:03;98512.86;;;5.31;46.19
61805;BME280;47725;47.912;7.356;2024-01-16T14:02:03;98510.60;;;5.36;46.66
61805;BME280;47725;47.912;7.356;2024-01-16T14:06:04;98508.67;;;5.43;46.47
61805;BME280;47725;47.912;7.356;2024-01-16T14:10:04;98506.47;;;5.48;46.02
61805;BME280;47725;47.912;7.356;2024-01-16T14:14:03;98504.74;;;5.49;45.57
61805;BME280;47725;47.912;7.356;2024-01-16T14:18:04;98503.83;;;5.51;46.51
61805;BME280;47725;47.912;7.356;2024-01-16T14:22:03;98502.22;;;5.56;45.63
61805;BME280;47725;47.912;7.356;2024-01-16T14:26:04;98499.16;;;5.62;46.11
61805;BME280;47725;47.912;7.356;2024-01-16T14:30:04;98497.41;;;5.68;45.79
61805;BME280;47725;47.912;7.356;2024-01-16T14:34:03;98493.81;;;5.77;45.88
61805;BME280;47725;47.912;7.356;2024-01-16T14:38:03;98489.89;;;5.83;45.71
61805;BME280;47725;47.912;7.356;2024-01-16T14:42:04;98489.58;;;5.86;45.89
61805;BME280;47725;47.912;7.356;2024-01-16T14:46:03;98486.70;;;5.89;45.77
61805;BME280;47725;47.912;7.356;2024-01-16T14:50:04;98484.17;;;5.90;45.64
61805;BME280;47725;47.912;7.356;2024-01-16T14:54:03;98485.27;;;5.91;45.76
61805;BME280;47725;47.912;7.356;2024-01-16T14:58:03;98484.37;;;5.91;45.73
61805;BME280;47725;47.912;7.356;2024-01-16T15:02:04;98481.32;;;5.89;46.04
61805;BME280;47725;47.912;7.356;2024-01-16T15:06:03;98478.16;;;5.86;46.25
61805;BME280;47725;47.912;7.356;2024-01-16T15:10:06;98475.37;;;5.82;46.14
61805;BME280;47725;47.912;7.356;2024-01-16T15:14:03;98474.38;;;5.76;46.40
61805;BME280;47725;47.912;7.356;2024-01-16T15:18:03;98474.13;;;5.68;46.88
61805;BME280;47725;47.912;7.356;2024-01-16T15:22:03;98475.14;;;5.58;47.08
61805;BME280;47725;47.912;7.356;2024-01-16T15:26:03;98477.33;;;5.47;47.14
61805;BME280;47725;47.912;7.356;2024-01-16T15:30:03;98479.66;;;5.34;47.51
61805;BME280;47725;47.912;7.356;2024-01-16T15:34:03;98482.93;;;5.22;47.55
61805;BME280;47725;47.912;7.356;2024-01-16T15:38:03;98484.16;;;5.10;47.71
61805;BME280;47725;47.912;7.356;2024-01-16T15:42:03;98483.94;;;4.98;47.78
61805;BME280;47725;47.912;7.356;2024-01-16T15:46:03;98485.07;;;4.88;47.80
61805;BME280;47725;47.912;7.356;2024-01-16T15:50:04;98487.00;;;4.79;47.91
61805;BME280;47725;47.912;7.356;2024-01-16T15:54:03;98490.33;;;4.69;47.94
61805;BME280;47725;47.912;7.356;2024-01-16T15:58:03;98495.58;;;4.59;47.95
61805;BME280;47725;47.912;7.356;2024-01-16T16:02:03;98502.22;;;4.50;48.15
61805;BME280;47725;47.912;7.356;2024-01-16T16:06:03;98508.17;;;4.42;48.16
61805;BME280;47725;47.912;7.356;2024-01-16T16:10:04;98512.22;;;4.36;48.09
61805;BME280;47725;47.912;7.356;2024-01-16T16:14:03;98514.58;;;4.29;47.97
61805;BME280;47725;47.912;7.356;2024-01-16T16:18:03;98514.56;;;4.21;48.14
61805;BME280;47725;47.912;7.356;2024-01-16T16:22:04;98515.27;;;4.12;48.26
61805;BME280;47725;47.912;7.356;2024-01-16T16:26:03;98515.88;;;4.03;48.42
61805;BME280;47725;47.912;7.356;2024-01-16T16:30:03;98515.48;;;3.95;48.30
61805;BME280;47725;47.912;7.356;2024-01-16T16:34:04;98515.13;;;3.85;48.36
61805;BME280;47725;47.912;7.356;2024-01-16T16:38:03;98514.17;;;3.74;48.52
61805;BME280;47725;47.912;7.356;2024-01-16T16:42:03;98512.70;;;3.64;48.69
61805;BME280;47725;47.912;7.356;2024-01-16T16:46:03;98512.18;;;3.56;48.80
61805;BME280;47725;47.912;7.356;2024-01-16T16:50:03;98510.41;;;3.50;48.59
61805;BME280;47725;47.912;7.356;2024-01-16T16:54:03;98508.26;;;3.44;48.64
61805;BME280;47725;47.912;7.356;2024-01-16T16:58:03;98506.02;;;3.39;48.55
61805;BME280;47725;47.912;7.356;2024-01-16T17:02:03;98503.81;;;3.37;48.25
61805;BME280;47725;47.912;7.356;2024-01-16T17:06:04;98502.33;;;3.31;48.21
61805;BME280;47725;47.912;7.356;2024-01-16T17:10:03;98502.20;;;3.23;48.56
61805;BME280;47725;47.912;7.356;2024-01-16T17:14:03;98503.05;;;3.16;48.79
61805;BME280;47725;47.912;7.356;2024-01-16T17:18:03;98502.78;;;3.11;48.62
61805;BME280;47725;47.912;7.356;2024-01-16T17:22:03;98501.23;;;3.06;48.59
61805;BME280;47725;47.912;7.356;2024-01-16T17:26:03;98499.98;;;3.00;48.69
61805;BME280;47725;47.912;7.356;2024-01-16T17:30:03;98500.25;;;2.95;48.67
61805;BME280;47725;47.912;7.356;2024-01-16T17:34:03;98499.45;;;2.90;48.69
61805;BME280;47725;47.912;7.356;2024-01-16T17:38:03;98497.67;;;2.84;48.68
61805;BME280;47725;47.912;7.356;2024-01-16T17:42:03;98495.47;;;2.76;48.88
61805;BME280;47725;47.912;7.356;2024-01-16T17:46:06;98493.48;;;2.68;48.88
61805;BME280;47725;47.912;7.356;2024-01-16T17:50:04;98491.66;;;2.60;49.02
61805;BME280;47725;47.912;7.356;2024-01-16T17:54:03;98489.95;;;2.55;48.92
61805;BME280;47725;47.912;7.356;2024-01-16T17:58:03;98488.75;;;2.49;48.90
61805;BME280;47725;47.912;7.356;2024-01-16T18:02:03;98486.70;;;2.46;48.80
61805;BME280;47725;47.912;7.356;2024-01-16T18:06:03;98483.01;;;2.43;48.73
61805;BME280;47725;47.912;7.356;2024-01-16T18:10:03;98479.27;;;2.38;48.96
61805;BME280;47725;47.912;7.356;2024-01-16T18:14:03;98473.21;;;2.31;49.05
61805;BME280;47725;47.912;7.356;2024-01-16T18:18:03;98468.74;;;2.26;49.14
61805;BME280;47725;47.912;7.356;2024-01-16T18:22:03;98464.49;;;2.20;49.28
61805;BME280;47725;47.912;7.356;2024-01-16T18:26:03;98460.17;;;2.16;49.14
61805;BME280;47725;47.912;7.356;2024-01-16T18:30:03;98456.94;;;2.11;49.28
61805;BME280;47725;47.912;7.356;2024-01-16T18:34:06;98454.35;;;2.08;49.23
61805;BME280;47725;47.912;7.356;2024-01-16T18:38:03;98450.54;;;2.03;49.22
61805;BME280;47725;47.912;7.356;2024-01-16T18:42:03;98447.91;;;1.96;49.51
61805;BME280;47725;47.912;7.356;2024-01-16T18:46:03;98443.75;;;1.90;49.43
61805;BME280;47725;47.912;7.356;2024-01-16T18:50:03;98437.05;;;1.85;49.47
61805;BME280;47725;47.912;7.356;2024-01-16T18:54:03;98431.02;;;1.81;49.42
61805;BME280;47725;47.912;7.356;2024-01-16T18:58:03;98425.21;;;1.77;49.47
61805;BME280;47725;47.912;7.356;2024-01-16T19:02:03;98419.87;;;1.73;49.54
61805;BME280;47725;47.912;7.356;2024-01-16T19:06:06;98414.39;;;1.71;49.51
61805;BME280;47725;47.912;7.356;2024-01-16T19:10:03;98410.35;;;1.66;49.62
61805;BME280;47725;47.912;7.356;2024-01-16T19:14:03;98404.42;;;1.59;50.07
61805;BME280;47725;47.912;7.356;2024-01-16T19:18:03;98398.94;;;1.51;50.32
61805;BME280;47725;47.912;7.356;2024-01-16T19:22:03;98391.28;;;1.47;50.35
61805;BME280;47725;47.912;7.356;2024-01-16T19:26:03;98383.98;;;1.43;50.30
61805;BME280;47725;47.912;7.356;2024-01-16T19:30:03;98378.47;;;1.38;50.66
61805;BME280;47725;47.912;7.356;2024-01-16T19:34:03;98373.55;;;1.34;50.53
61805;BME280;47725;47.912;7.356;2024-01-16T19:38:03;98367.92;;;1.32;50.69
61805;BME280;47725;47.912;7.356;2024-01-16T19:42:03;98361.57;;;1.30;50.76
61805;BME280;47725;47.912;7.356;2024-01-16T19:46:03;98356.61;;;1.30;50.68
61805;BME280;47725;47.912;7.356;2024-01-16T19:50:03;98351.71;;;1.32;50.74
61805;BME280;47725;47.912;7.356;2024-01-16T19:54:03;98345.28;;;1.34;50.52
61805;BME280;47725;47.912;7.356;2024-01-16T19:58:03;98337.52;;;1.39;50.52
61805;BME280;47725;47.912;7.356;2024-01-16T20:02:03;98331.41;;;1.43;50.41
61805;BME280;47725;47.912;7.356;2024-01-16T20:06:03;98324.65;;;1.48;50.35
61805;BME280;47725;47.912;7.356;2024-01-16T20:10:03;98318.84;;;1.53;50.38
61805;BME280;47725;47.912;7.356;2024-01-16T20:14:03;98312.66;;;1.58;50.48
61805;BME280;47725;47.912;7.356;2024-01-16T20:18:03;98307.14;;;1.63;50.56
61805;BME280;47725;47.912;7.356;2024-01-16T20:22:03;98302.73;;;1.67;50.66
61805;BME280;47725;47.912;7.356;2024-01-16T20:26:03;98297.63;;;1.72;50.44
61805;BME280;47725;47.912;7.356;2024-01-16T20:30:03;98293.52;;;1.77;50.27
61805;BME280;47725;47.912;7.356;2024-01-16T20:34:03;98291.58;;;1.82;50.32
61805;BME280;47725;47.912;7.356;2024-01-16T20:38:03;98288.62;;;1.86;50.25
61805;BME280;47725;47.912;7.356;2024-01-16T20:42:03;98283.95;;;1.90;50.42
61805;BME280;47725;47.912;7.356;2024-01-16T20:46:03;98276.79;;;1.94;50.51
61805;BME280;47725;47.912;7.356;2024-01-16T20:50:03;98268.41;;;1.97;50.56
61805;BME280;47725;47.912;7.356;2024-01-16T20:54:03;98261.17;;;2.01;50.50
61805;BME280;47725;47.912;7.356;2024-01-16T20:58:03;98253.22;;;2.05;50.45
61805;BME280;47725;47.912;7.356;2024-01-16T21:02:03;98244.87;;;2.09;50.64
61805;BME280;47725;47.912;7.356;2024-01-16T21:06:03;98238.15;;;2.12;50.63
61805;BME280;47725;47.912;7.356;2024-01-16T21:10:03;98230.69;;;2.16;50.56
61805;BME280;47725;47.912;7.356;2024-01-16T21:14:03;98222.85;;;2.19;50.66
61805;BME280;47725;47.912;7.356;2024-01-16T21:18:03;98214.98;;;2.22;50.88
61805;BME280;47725;47.912;7.356;2024-01-16T21:22:03;98207.65;;;2.24;51.00
61805;BME280;47725;47.912;7.356;2024-01-16T21:26:08;98201.59;;;2.25;51.11
61805;BME280;47725;47.912;7.356;2024-01-16T21:30:06;98195.53;;;2.26;51.24